Station: EBLG - 30/03/2020 16:20Z (il y a 5 minutes)
EBLG 301620Z 35007KT 310V010 9999 FEW042 07/M02 Q1027 NOSIG
Vent du 350º - 7 kt (vent de direction variable de 310º à 010º)
Visibilité > 10 km
Nuages épars à 4200 pieds
Température: +07ºC - Point de rosée: -02ºC - QNH: 1027 hPa
Pas de changement significatif prévu dans les 2 heures qui suivent l'observation